^^
Station Historical Data
Daily Summary for April 29, 2017 Units:  English    Metric   Both
« Previous Day
Next Day »
Daily Weekly Monthly Yearly Custom
  High: Low: Average:
Temperature: 82.8 °F 63.3 °F 73.1 °F
Dew Point: 66.0 °F 46.6 °F 59.6 °F
Humidity: 85% 43% 64%
Wind Speed: 7.0mph 0.0mph 2.3mph
Wind Gust: 26.0mph - -
Wind- - SSW
Pressure: 30.12 in 29.93 in -
Precipitation: 0.01 in    
Historical Graphs
 
 
Tabular Data for April 29, 2017
Time Temperature Dew Point Pressure Wind Wind Speed Wind Gust Humidity Rainfall Rate (Hourly) Conditions
00:00 69.3 °F 47.0 °F 30.05 in Calm   2.0 mph 45% 0.00 in RA
00:15 70.4 °F 46.8 °F 30.05 in Calm   5.0 mph 43% 0.00 in CLR
00:30 69.8 °F 46.9 °F 30.06 in South 1.0 mph 4.0 mph 44% 0.00 in CLR
00:45 69.7 °F 46.8 °F 30.06 in SSW 1.0 mph 3.0 mph 44% 0.00 in CLR
01:00 70.1 °F 46.6 °F 30.05 in Calm   3.0 mph 43% 0.00 in CLR
02:15 71.1 °F 54.6 °F 30.04 in Calm   5.0 mph 56% 0.00 in CLR
02:30 70.9 °F 55.4 °F 30.04 in SSW 1.0 mph 5.0 mph 58% 0.00 in CLR
02:45 70.3 °F 56.2 °F 30.03 in Calm   3.0 mph 61% 0.00 in CLR
03:00 69.5 °F 57.2 °F 30.02 in SE 1.0 mph 3.0 mph 65% 0.00 in CLR
03:15 68.3 °F 57.7 °F 30.03 in SSW 1.0 mph 4.0 mph 69% 0.00 in -RA
03:30 69.1 °F 57.3 °F 30.03 in SSW 2.0 mph 5.0 mph 66% 0.00 in -RA
03:45 69.2 °F 57.0 °F 30.03 in Calm   5.0 mph 65% 0.00 in -RA
04:00 68.9 °F 57.1 °F 30.03 in Calm   3.0 mph 66% 0.00 in -RA
04:15 68.8 °F 57.4 °F 30.03 in Calm   4.0 mph 67% 0.00 in SCT
04:30 67.5 °F 57.4 °F 30.02 in Calm   2.0 mph 70% 0.00 in SCT
04:45 66.9 °F 58.4 °F 30.00 in Calm   2.0 mph 74% 0.00 in SCT
05:00 65.6 °F 58.9 °F 29.98 in Calm   1.0 mph 79% 0.00 in SCT
05:15 64.3 °F 59.7 °F 29.97 in Calm   2.0 mph 85% 0.00 in -RA
05:30 64.6 °F 60.0 °F 29.97 in South 2.0 mph 5.0 mph 85% 0.01 in -RA
05:45 65.8 °F 59.5 °F 29.97 in South 3.0 mph 8.0 mph 80% 0.00 in -RA
06:00 66.3 °F 59.6 °F 29.96 in Calm   12.0 mph 79% 0.00 in -RA
06:15 66.4 °F 59.7 °F 29.99 in WNW 3.0 mph 6.0 mph 79% 0.00 in BKN
06:30 63.7 °F 57.8 °F 30.00 in North 1.0 mph 4.0 mph 81% 0.00 in BKN
06:45 63.3 °F 58.0 °F 30.00 in Calm   3.0 mph 83% 0.00 in BKN
07:00 63.6 °F 57.7 °F 29.99 in Calm   1.0 mph 81% 0.00 in BKN
07:15 63.8 °F 57.9 °F 29.98 in ENE 1.0 mph 2.0 mph 81% 0.00 in BKN
07:30 64.4 °F 58.4 °F 29.98 in Calm   1.0 mph 81% 0.00 in BKN
07:45 64.8 °F 58.8 °F 29.97 in Calm   1.0 mph 81% 0.00 in BKN
08:00 65.2 °F 59.6 °F 29.97 in Calm   2.0 mph 82% 0.00 in BKN
08:15 66.2 °F 60.2 °F 29.97 in Calm   1.0 mph 81% 0.00 in FEW
08:30 67.0 °F 60.6 °F 29.99 in West 1.0 mph 2.0 mph 80% 0.00 in FEW
08:45 67.3 °F 60.9 °F 30.00 in SW 1.0 mph 4.0 mph 80% 0.00 in FEW
09:00 68.6 °F 61.4 °F 30.01 in SW 2.0 mph 7.0 mph 78% 0.00 in FEW
09:15 69.0 °F 62.2 °F 30.02 in SSW 3.0 mph 8.0 mph 79% 0.00 in CLR
09:30 70.1 °F 62.9 °F 30.03 in SW 3.0 mph 9.0 mph 78% 0.00 in CLR
09:45 70.8 °F 63.6 °F 30.02 in SSW 5.0 mph 12.0 mph 78% 0.00 in CLR
10:00 72.4 °F 64.4 °F 30.01 in SSW 5.0 mph 12.0 mph 76% 0.00 in CLR
10:15 74.1 °F 65.3 °F 30.02 in SSW 5.0 mph 13.0 mph 74% 0.00 in FEW
10:30 75.0 °F 65.4 °F 30.02 in SSW 7.0 mph 12.0 mph 72% 0.00 in FEW
10:45 76.1 °F 66.0 °F 30.02 in SSW 2.0 mph 15.0 mph 71% 0.00 in FEW
11:00 77.7 °F 64.5 °F 30.00 in SW 6.0 mph 10.0 mph 64% 0.00 in FEW
11:15 77.2 °F 63.2 °F 29.99 in SSE 2.0 mph 15.0 mph 62% 0.00 in SCT
11:30 77.2 °F 63.2 °F 29.96 in NE 3.0 mph 13.0 mph 62% 0.00 in SCT
11:45 77.5 °F 63.0 °F 29.97 in WSW 5.0 mph 10.0 mph 61% 0.00 in SCT
12:00 77.8 °F 63.3 °F 29.97 in WSW 3.0 mph 12.0 mph 61% 0.00 in SCT
12:15 78.7 °F 63.7 °F 29.97 in WSW 5.0 mph 10.0 mph 60% 0.00 in FEW
12:30 79.5 °F 63.5 °F 29.96 in WSW 2.0 mph 12.0 mph 58% 0.00 in FEW
12:45 79.6 °F 63.5 °F 29.95 in West 6.0 mph 16.0 mph 58% 0.00 in FEW
13:00 79.6 °F 64.0 °F 29.94 in WSW 3.0 mph 13.0 mph 59% 0.00 in FEW
13:15 80.0 °F 63.9 °F 29.94 in NNW 1.0 mph 7.0 mph 58% 0.00 in FEW
13:30 80.8 °F 63.6 °F 29.93 in SW 6.0 mph 12.0 mph 56% 0.00 in FEW
13:45 80.6 °F 63.4 °F 29.93 in SSW 3.0 mph 12.0 mph 56% 0.00 in FEW
14:00 81.2 °F 64.0 °F 29.94 in WSW 7.0 mph 10.0 mph 56% 0.00 in FEW
14:15 80.5 °F 63.9 °F 29.94 in WSW 5.0 mph 8.0 mph 57% 0.00 in FEW
14:30 81.4 °F 64.2 °F 29.95 in West 2.0 mph 9.0 mph 56% 0.00 in FEW
14:45 80.8 °F 63.7 °F 29.95 in WSW 3.0 mph 9.0 mph 56% 0.00 in FEW
15:00 82.3 °F 64.0 °F 29.96 in WSW 2.0 mph 14.0 mph 54% 0.00 in FEW
15:15 82.0 °F 63.7 °F 29.96 in SW 5.0 mph 16.0 mph 54% 0.00 in BKN
15:30 82.4 °F 63.5 °F 29.96 in South 6.0 mph 13.0 mph 53% 0.00 in BKN
15:45 82.0 °F 63.2 °F 29.96 in WSW 2.0 mph 12.0 mph 53% 0.00 in BKN
16:00 81.5 °F 63.2 °F 29.96 in SW 5.0 mph 15.0 mph 54% 0.00 in BKN
16:15 81.8 °F 63.5 °F 29.97 in WSW 6.0 mph 14.0 mph 54% 0.00 in SCT
16:30 81.9 °F 63.1 °F 29.97 in SE 2.0 mph 13.0 mph 53% 0.00 in SCT
16:45 82.8 °F 62.8 °F 29.97 in NE 3.0 mph 12.0 mph 51% 0.00 in SCT
17:00 82.1 °F 61.6 °F 29.98 in South 5.0 mph 26.0 mph 50% 0.00 in SCT
17:15 81.6 °F 61.1 °F 29.99 in SSW 5.0 mph 14.0 mph 50% 0.00 in SCT
17:30 80.9 °F 61.6 °F 29.98 in SW 3.0 mph 17.0 mph 52% 0.00 in SCT
17:45 80.7 °F 61.5 °F 29.97 in NNW 2.0 mph 10.0 mph 52% 0.00 in SCT
18:00 79.7 °F 61.1 °F 29.97 in WNW 1.0 mph 12.0 mph 53% 0.00 in SCT
18:15 79.7 °F 60.5 °F 29.97 in SW 3.0 mph 13.0 mph 52% 0.00 in FEW
18:30 80.0 °F 59.7 °F 29.97 in South 5.0 mph 20.0 mph 50% 0.00 in FEW
18:45 79.1 °F 60.0 °F 29.98 in SE 3.0 mph 16.0 mph 52% 0.00 in FEW
19:00 78.1 °F 60.1 °F 29.98 in SW 1.0 mph 12.0 mph 54% 0.00 in FEW
19:15 77.6 °F 59.6 °F 29.99 in ESE 2.0 mph 8.0 mph 54% 0.00 in FEW
19:30 76.5 °F 59.6 °F 30.00 in Calm   5.0 mph 56% 0.00 in FEW
19:45 75.5 °F 60.6 °F 30.00 in NNE 2.0 mph 6.0 mph 60% 0.00 in FEW
20:00 75.3 °F 60.5 °F 30.02 in Calm   6.0 mph 60% 0.00 in FEW
20:15 74.8 °F 60.0 °F 30.03 in NNW 1.0 mph 5.0 mph 60% 0.00 in FEW
20:30 74.7 °F 59.9 °F 30.04 in North 3.0 mph 9.0 mph 60% 0.00 in FEW
20:45 74.1 °F 59.3 °F 30.05 in North 1.0 mph 8.0 mph 60% 0.00 in FEW
21:00 73.7 °F 58.0 °F 30.07 in NW 5.0 mph 12.0 mph 58% 0.00 in FEW
21:15 73.1 °F 58.3 °F 30.08 in NNW 3.0 mph 9.0 mph 60% 0.00 in CLR
21:30 70.8 °F 57.6 °F 30.09 in NE 3.0 mph 12.0 mph 63% 0.00 in CLR
21:45 69.1 °F 56.9 °F 30.10 in North 3.0 mph 12.0 mph 65% 0.00 in CLR
22:00 68.5 °F 56.7 °F 30.09 in North 5.0 mph 13.0 mph 66% 0.00 in CLR
22:15 68.2 °F 56.4 °F 30.10 in NNE 3.0 mph 10.0 mph 66% 0.00 in SCT
22:30 67.8 °F 56.0 °F 30.10 in North 3.0 mph 8.0 mph 66% 0.00 in SCT
22:45 67.3 °F 55.9 °F 30.11 in NNE 2.0 mph 10.0 mph 67% 0.00 in SCT
23:00 66.5 °F 55.6 °F 30.11 in NW 1.0 mph 7.0 mph 68% 0.00 in SCT
23:15 66.0 °F 55.5 °F 30.12 in NE 1.0 mph 6.0 mph 69% 0.00 in CLR
23:30 65.5 °F 54.7 °F 30.12 in NNE 2.0 mph 9.0 mph 68% 0.00 in CLR
23:45 65.0 °F 54.6 °F 30.12 in NNE 2.0 mph 6.0 mph 69% 0.00 in CLR
TarryTown NY Weather
Compliments of Weather Underground - 1.5 mb